sensor_id;sensor_type;location;lat;lon;timestamp;P1;durP1;ratioP1;P2;durP2;ratioP2
10120;SDS011;5100;45.176;5.714;2022-09-09T00:00:16;3.37;;;1.48;;
10120;SDS011;5100;45.176;5.714;2022-09-09T00:02:45;1.85;;;1.30;;
10120;SDS011;5100;45.176;5.714;2022-09-09T00:05:24;2.33;;;1.20;;
10120;SDS011;5100;45.176;5.714;2022-09-09T00:07:59;2.35;;;1.10;;
10120;SDS011;5100;45.176;5.714;2022-09-09T00:10:30;2.20;;;1.40;;
10120;SDS011;5100;45.176;5.714;2022-09-09T00:15:57;1.90;;;1.35;;
10120;SDS011;5100;45.176;5.714;2022-09-09T00:18:36;1.00;;;0.90;;
10120;SDS011;5100;45.176;5.714;2022-09-09T00:21:16;4.07;;;1.37;;
10120;SDS011;5100;45.176;5.714;2022-09-09T00:23:53;2.83;;;1.25;;
10120;SDS011;5100;45.176;5.714;2022-09-09T00:31:34;7.43;;;1.37;;
10120;SDS011;5100;45.176;5.714;2022-09-09T00:34:13;1.83;;;1.25;;
10120;SDS011;5100;45.176;5.714;2022-09-09T00:36:44;2.90;;;2.08;;
10120;SDS011;5100;45.176;5.714;2022-09-09T00:39:15;4.25;;;2.22;;
10120;SDS011;5100;45.176;5.714;2022-09-09T00:44:36;2.62;;;1.73;;
10120;SDS011;5100;45.176;5.714;2022-09-09T00:57:57;7.37;;;1.37;;
10120;SDS011;5100;45.176;5.714;2022-09-09T01:00:25;2.50;;;1.00;;
10120;SDS011;5100;45.176;5.714;2022-09-09T01:05:44;1.10;;;1.00;;
10120;SDS011;5100;45.176;5.714;2022-09-09T01:11:25;4.22;;;1.10;;
10120;SDS011;5100;45.176;5.714;2022-09-09T01:14:11;1.95;;;1.30;;
10120;SDS011;5100;45.176;5.714;2022-09-09T01:16:59;1.62;;;1.20;;
10120;SDS011;5100;45.176;5.714;2022-09-09T01:19:57;1.90;;;1.17;;
10120;SDS011;5100;45.176;5.714;2022-09-09T01:28:11;1.30;;;1.20;;
10120;SDS011;5100;45.176;5.714;2022-09-09T01:30:43;2.03;;;1.10;;
10120;SDS011;5100;45.176;5.714;2022-09-09T01:33:15;2.37;;;1.15;;
10120;SDS011;5100;45.176;5.714;2022-09-09T01:35:50;1.25;;;1.15;;
10120;SDS011;5100;45.176;5.714;2022-09-09T01:38:22;2.75;;;1.30;;
10120;SDS011;5100;45.176;5.714;2022-09-09T01:40:50;3.25;;;1.30;;
10120;SDS011;5100;45.176;5.714;2022-09-09T01:43:19;1.75;;;1.17;;
10120;SDS011;5100;45.176;5.714;2022-09-09T01:45:47;1.50;;;1.30;;
10120;SDS011;5100;45.176;5.714;2022-09-09T01:48:17;3.33;;;1.23;;
10120;SDS011;5100;45.176;5.714;2022-09-09T01:50:46;1.83;;;1.17;;
10120;SDS011;5100;45.176;5.714;2022-09-09T01:53:13;2.17;;;1.30;;
10120;SDS011;5100;45.176;5.714;2022-09-09T02:01:49;1.90;;;1.45;;
10120;SDS011;5100;45.176;5.714;2022-09-09T02:04:28;3.17;;;1.52;;
10120;SDS011;5100;45.176;5.714;2022-09-09T02:07:32;4.90;;;1.30;;
10120;SDS011;5100;45.176;5.714;2022-09-09T02:10:04;2.40;;;1.65;;
10120;SDS011;5100;45.176;5.714;2022-09-09T02:12:31;1.40;;;1.30;;
10120;SDS011;5100;45.176;5.714;2022-09-09T02:15:05;5.18;;;1.35;;
10120;SDS011;5100;45.176;5.714;2022-09-09T02:17:41;3.67;;;1.67;;
10120;SDS011;5100;45.176;5.714;2022-09-09T02:20:09;3.92;;;1.50;;
10120;SDS011;5100;45.176;5.714;2022-09-09T02:22:40;4.32;;;1.40;;
10120;SDS011;5100;45.176;5.714;2022-09-09T02:25:11;3.47;;;1.30;;
10120;SDS011;5100;45.176;5.714;2022-09-09T02:27:41;4.85;;;1.40;;
10120;SDS011;5100;45.176;5.714;2022-09-09T02:30:11;4.47;;;1.60;;
10120;SDS011;5100;45.176;5.714;2022-09-09T02:32:38;3.92;;;1.55;;
10120;SDS011;5100;45.176;5.714;2022-09-09T02:35:12;7.68;;;1.60;;
10120;SDS011;5100;45.176;5.714;2022-09-09T02:37:42;6.62;;;1.52;;
10120;SDS011;5100;45.176;5.714;2022-09-09T02:40:12;3.45;;;1.50;;
10120;SDS011;5100;45.176;5.714;2022-09-09T02:42:43;2.42;;;1.20;;
10120;SDS011;5100;45.176;5.714;2022-09-09T02:45:16;4.15;;;1.77;;
10120;SDS011;5100;45.176;5.714;2022-09-09T02:48:07;3.53;;;1.50;;
10120;SDS011;5100;45.176;5.714;2022-09-09T02:50:52;2.92;;;1.50;;
10120;SDS011;5100;45.176;5.714;2022-09-09T02:54:12;4.47;;;1.40;;
10120;SDS011;5100;45.176;5.714;2022-09-09T02:56:38;3.00;;;1.52;;
10120;SDS011;5100;45.176;5.714;2022-09-09T02:59:08;2.58;;;1.27;;
10120;SDS011;5100;45.176;5.714;2022-09-09T03:01:35;3.12;;;1.60;;
10120;SDS011;5100;45.176;5.714;2022-09-09T03:04:02;5.40;;;1.73;;
10120;SDS011;5100;45.176;5.714;2022-09-09T03:06:30;2.05;;;1.37;;
10120;SDS011;5100;45.176;5.714;2022-09-09T03:08:58;1.67;;;1.42;;
10120;SDS011;5100;45.176;5.714;2022-09-09T03:11:27;1.73;;;1.30;;
10120;SDS011;5100;45.176;5.714;2022-09-09T03:13:54;3.35;;;1.40;;
10120;SDS011;5100;45.176;5.714;2022-09-09T03:16:22;3.70;;;1.35;;
10120;SDS011;5100;45.176;5.714;2022-09-09T03:18:49;3.47;;;1.50;;
10120;SDS011;5100;45.176;5.714;2022-09-09T03:21:16;3.08;;;1.40;;
10120;SDS011;5100;45.176;5.714;2022-09-09T03:23:43;2.97;;;1.17;;
10120;SDS011;5100;45.176;5.714;2022-09-09T03:26:10;2.72;;;1.58;;
10120;SDS011;5100;45.176;5.714;2022-09-09T03:28:37;1.90;;;1.37;;
10120;SDS011;5100;45.176;5.714;2022-09-09T03:31:04;4.57;;;1.60;;
10120;SDS011;5100;45.176;5.714;2022-09-09T03:33:32;3.08;;;1.65;;
10120;SDS011;5100;45.176;5.714;2022-09-09T03:35:58;2.05;;;1.48;;
10120;SDS011;5100;45.176;5.714;2022-09-09T03:38:24;3.15;;;1.58;;
10120;SDS011;5100;45.176;5.714;2022-09-09T03:40:51;3.03;;;1.55;;
10120;SDS011;5100;45.176;5.714;2022-09-09T03:43:22;1.75;;;1.40;;
10120;SDS011;5100;45.176;5.714;2022-09-09T03:45:50;2.20;;;1.50;;
10120;SDS011;5100;45.176;5.714;2022-09-09T03:48:16;1.92;;;1.62;;
10120;SDS011;5100;45.176;5.714;2022-09-09T03:50:51;5.37;;;1.50;;
10120;SDS011;5100;45.176;5.714;2022-09-09T03:53:19;3.75;;;1.70;;
10120;SDS011;5100;45.176;5.714;2022-09-09T03:55:48;2.87;;;1.30;;
10120;SDS011;5100;45.176;5.714;2022-09-09T03:58:18;1.98;;;1.48;;
10120;SDS011;5100;45.176;5.714;2022-09-09T04:00:57;6.22;;;1.80;;
10120;SDS011;5100;45.176;5.714;2022-09-09T04:03:25;5.93;;;1.73;;
10120;SDS011;5100;45.176;5.714;2022-09-09T04:05:52;4.57;;;1.75;;
10120;SDS011;5100;45.176;5.714;2022-09-09T04:08:19;1.62;;;1.20;;
10120;SDS011;5100;45.176;5.714;2022-09-09T04:10:48;2.25;;;1.20;;
10120;SDS011;5100;45.176;5.714;2022-09-09T04:13:15;4.25;;;1.40;;
10120;SDS011;5100;45.176;5.714;2022-09-09T04:15:44;3.42;;;1.40;;
10120;SDS011;5100;45.176;5.714;2022-09-09T04:18:21;1.37;;;1.27;;
10120;SDS011;5100;45.176;5.714;2022-09-09T04:20:48;3.70;;;1.70;;
10120;SDS011;5100;45.176;5.714;2022-09-09T04:23:16;4.10;;;1.20;;
10120;SDS011;5100;45.176;5.714;2022-09-09T04:25:46;2.37;;;1.45;;
10120;SDS011;5100;45.176;5.714;2022-09-09T04:28:14;2.40;;;1.42;;
10120;SDS011;5100;45.176;5.714;2022-09-09T04:30:42;3.45;;;1.33;;
10120;SDS011;5100;45.176;5.714;2022-09-09T04:33:09;2.97;;;1.30;;
10120;SDS011;5100;45.176;5.714;2022-09-09T04:35:36;5.95;;;1.87;;
10120;SDS011;5100;45.176;5.714;2022-09-09T04:38:03;2.47;;;1.35;;
10120;SDS011;5100;45.176;5.714;2022-09-09T04:40:30;1.27;;;1.17;;
10120;SDS011;5100;45.176;5.714;2022-09-09T04:42:58;2.50;;;1.40;;
10120;SDS011;5100;45.176;5.714;2022-09-09T04:45:24;4.90;;;1.42;;
10120;SDS011;5100;45.176;5.714;2022-09-09T04:47:52;2.78;;;1.30;;
10120;SDS011;5100;45.176;5.714;2022-09-09T04:50:19;2.35;;;1.35;;
10120;SDS011;5100;45.176;5.714;2022-09-09T04:52:45;3.85;;;1.73;;
10120;SDS011;5100;45.176;5.714;2022-09-09T04:55:12;3.62;;;1.92;;
10120;SDS011;5100;45.176;5.714;2022-09-09T04:57:39;1.95;;;1.60;;
10120;SDS011;5100;45.176;5.714;2022-09-09T05:00:07;3.78;;;1.45;;
10120;SDS011;5100;45.176;5.714;2022-09-09T05:02:37;4.55;;;1.80;;
10120;SDS011;5100;45.176;5.714;2022-09-09T05:05:04;3.17;;;1.50;;
10120;SDS011;5100;45.176;5.714;2022-09-09T05:07:31;2.72;;;1.50;;
10120;SDS011;5100;45.176;5.714;2022-09-09T05:09:57;4.93;;;1.55;;
10120;SDS011;5100;45.176;5.714;2022-09-09T05:12:24;2.65;;;1.20;;
10120;SDS011;5100;45.176;5.714;2022-09-09T05:14:51;3.60;;;1.40;;
10120;SDS011;5100;45.176;5.714;2022-09-09T05:17:18;3.47;;;1.50;;
10120;SDS011;5100;45.176;5.714;2022-09-09T05:19:45;7.32;;;1.85;;
10120;SDS011;5100;45.176;5.714;2022-09-09T05:22:11;3.25;;;1.45;;
10120;SDS011;5100;45.176;5.714;2022-09-09T05:24:40;6.80;;;1.67;;
10120;SDS011;5100;45.176;5.714;2022-09-09T05:27:06;3.70;;;1.67;;
10120;SDS011;5100;45.176;5.714;2022-09-09T05:29:32;4.15;;;1.70;;
10120;SDS011;5100;45.176;5.714;2022-09-09T05:32:00;4.50;;;1.40;;
10120;SDS011;5100;45.176;5.714;2022-09-09T05:34:26;3.40;;;1.55;;
10120;SDS011;5100;45.176;5.714;2022-09-09T05:36:52;5.37;;;1.90;;
10120;SDS011;5100;45.176;5.714;2022-09-09T05:39:20;3.90;;;1.67;;
10120;SDS011;5100;45.176;5.714;2022-09-09T05:41:46;3.72;;;1.50;;
10120;SDS011;5100;45.176;5.714;2022-09-09T05:44:12;7.97;;;2.17;;
10120;SDS011;5100;45.176;5.714;2022-09-09T05:46:39;4.55;;;2.30;;
10120;SDS011;5100;45.176;5.714;2022-09-09T05:49:05;4.68;;;1.70;;
10120;SDS011;5100;45.176;5.714;2022-09-09T05:51:31;3.33;;;1.40;;
10120;SDS011;5100;45.176;5.714;2022-09-09T05:53:58;2.12;;;1.70;;
10120;SDS011;5100;45.176;5.714;2022-09-09T05:56:25;4.68;;;1.98;;
10120;SDS011;5100;45.176;5.714;2022-09-09T05:58:56;3.55;;;2.15;;
10120;SDS011;5100;45.176;5.714;2022-09-09T06:01:31;6.07;;;2.20;;
10120;SDS011;5100;45.176;5.714;2022-09-09T06:03:58;2.65;;;1.92;;
10120;SDS011;5100;45.176;5.714;2022-09-09T06:06:25;4.78;;;2.05;;
10120;SDS011;5100;45.176;5.714;2022-09-09T06:08:54;2.22;;;1.80;;
10120;SDS011;5100;45.176;5.714;2022-09-09T06:11:25;6.62;;;2.15;;
10120;SDS011;5100;45.176;5.714;2022-09-09T06:13:53;4.18;;;2.33;;
10120;SDS011;5100;45.176;5.714;2022-09-09T06:16:21;8.60;;;5.53;;
10120;SDS011;5100;45.176;5.714;2022-09-09T06:18:49;9.43;;;8.45;;
10120;SDS011;5100;45.176;5.714;2022-09-09T06:21:24;5.40;;;2.47;;
10120;SDS011;5100;45.176;5.714;2022-09-09T06:23:52;3.60;;;2.37;;
10120;SDS011;5100;45.176;5.714;2022-09-09T06:26:20;7.53;;;2.60;;
10120;SDS011;5100;45.176;5.714;2022-09-09T06:28:48;5.35;;;2.42;;
10120;SDS011;5100;45.176;5.714;2022-09-09T06:31:16;4.10;;;2.20;;
10120;SDS011;5100;45.176;5.714;2022-09-09T06:33:47;3.17;;;1.85;;
10120;SDS011;5100;45.176;5.714;2022-09-09T06:36:21;3.58;;;1.90;;
10120;SDS011;5100;45.176;5.714;2022-09-09T06:38:49;6.30;;;2.30;;
10120;SDS011;5100;45.176;5.714;2022-09-09T06:41:16;2.70;;;1.83;;
10120;SDS011;5100;45.176;5.714;2022-09-09T06:43:45;3.08;;;2.17;;
10120;SDS011;5100;45.176;5.714;2022-09-09T06:46:16;5.20;;;2.28;;
10120;SDS011;5100;45.176;5.714;2022-09-09T06:48:44;6.10;;;2.30;;
10120;SDS011;5100;45.176;5.714;2022-09-09T06:51:12;4.53;;;2.17;;
10120;SDS011;5100;45.176;5.714;2022-09-09T06:53:41;3.80;;;2.05;;
10120;SDS011;5100;45.176;5.714;2022-09-09T06:58:37;2.70;;;2.00;;
10120;SDS011;5100;45.176;5.714;2022-09-09T07:01:10;2.53;;;1.70;;
10120;SDS011;5100;45.176;5.714;2022-09-09T07:03:58;4.07;;;1.87;;
10120;SDS011;5100;45.176;5.714;2022-09-09T07:06:29;6.60;;;1.80;;
10120;SDS011;5100;45.176;5.714;2022-09-09T07:09:00;4.03;;;2.00;;
10120;SDS011;5100;45.176;5.714;2022-09-09T07:11:47;3.62;;;1.90;;
10120;SDS011;5100;45.176;5.714;2022-09-09T07:14:18;4.87;;;1.80;;
10120;SDS011;5100;45.176;5.714;2022-09-09T07:16:46;4.40;;;1.70;;
10120;SDS011;5100;45.176;5.714;2022-09-09T07:19:13;5.03;;;1.77;;
10120;SDS011;5100;45.176;5.714;2022-09-09T07:21:40;3.47;;;2.00;;
10120;SDS011;5100;45.176;5.714;2022-09-09T07:24:08;5.25;;;1.58;;
10120;SDS011;5100;45.176;5.714;2022-09-09T07:26:36;3.08;;;1.90;;
10120;SDS011;5100;45.176;5.714;2022-09-09T07:29:04;7.15;;;2.72;;
10120;SDS011;5100;45.176;5.714;2022-09-09T07:31:31;2.67;;;1.67;;
10120;SDS011;5100;45.176;5.714;2022-09-09T07:34:00;1.85;;;1.50;;
10120;SDS011;5100;45.176;5.714;2022-09-09T07:36:29;3.28;;;1.65;;
10120;SDS011;5100;45.176;5.714;2022-09-09T07:38:59;3.97;;;1.45;;
10120;SDS011;5100;45.176;5.714;2022-09-09T07:41:40;3.75;;;1.62;;
10120;SDS011;5100;45.176;5.714;2022-09-09T07:44:13;3.53;;;1.70;;
10120;SDS011;5100;45.176;5.714;2022-09-09T07:46:44;3.25;;;1.83;;
10120;SDS011;5100;45.176;5.714;2022-09-09T07:49:14;6.85;;;1.58;;
10120;SDS011;5100;45.176;5.714;2022-09-09T07:51:41;1.85;;;1.45;;
10120;SDS011;5100;45.176;5.714;2022-09-09T07:54:12;3.72;;;1.52;;
10120;SDS011;5100;45.176;5.714;2022-09-09T07:56:41;5.18;;;1.70;;
10120;SDS011;5100;45.176;5.714;2022-09-09T07:59:09;1.58;;;1.40;;
10120;SDS011;5100;45.176;5.714;2022-09-09T08:01:37;3.35;;;1.40;;
10120;SDS011;5100;45.176;5.714;2022-09-09T08:04:11;3.85;;;1.62;;
10120;SDS011;5100;45.176;5.714;2022-09-09T08:06:43;5.80;;;1.80;;
10120;SDS011;5100;45.176;5.714;2022-09-09T08:09:12;9.38;;;1.60;;
10120;SDS011;5100;45.176;5.714;2022-09-09T08:11:40;5.95;;;1.58;;
10120;SDS011;5100;45.176;5.714;2022-09-09T08:14:07;4.07;;;1.35;;
10120;SDS011;5100;45.176;5.714;2022-09-09T08:16:36;5.35;;;1.60;;
10120;SDS011;5100;45.176;5.714;2022-09-09T08:19:06;3.05;;;1.95;;
10120;SDS011;5100;45.176;5.714;2022-09-09T08:21:34;3.75;;;1.80;;
10120;SDS011;5100;45.176;5.714;2022-09-09T08:24:02;2.42;;;1.42;;
10120;SDS011;5100;45.176;5.714;2022-09-09T08:26:31;2.22;;;1.20;;
10120;SDS011;5100;45.176;5.714;2022-09-09T08:29:00;4.25;;;1.80;;
10120;SDS011;5100;45.176;5.714;2022-09-09T08:31:36;5.12;;;1.83;;
10120;SDS011;5100;45.176;5.714;2022-09-09T08:34:04;3.28;;;1.60;;
10120;SDS011;5100;45.176;5.714;2022-09-09T08:36:34;5.25;;;1.75;;
10120;SDS011;5100;45.176;5.714;2022-09-09T08:39:03;2.10;;;1.48;;
10120;SDS011;5100;45.176;5.714;2022-09-09T08:50:34;4.43;;;1.40;;
10120;SDS011;5100;45.176;5.714;2022-09-09T08:53:05;3.55;;;1.50;;
10120;SDS011;5100;45.176;5.714;2022-09-09T08:55:58;4.62;;;1.27;;
10120;SDS011;5100;45.176;5.714;2022-09-09T08:58:33;5.20;;;1.58;;
10120;SDS011;5100;45.176;5.714;2022-09-09T09:11:44;4.68;;;1.35;;
10120;SDS011;5100;45.176;5.714;2022-09-09T09:19:33;1.80;;;1.25;;
10120;SDS011;5100;45.176;5.714;2022-09-09T09:30:02;2.17;;;1.27;;
10120;SDS011;5100;45.176;5.714;2022-09-09T09:32:39;1.45;;;1.17;;
10120;SDS011;5100;45.176;5.714;2022-09-09T09:35:14;1.98;;;0.98;;
10120;SDS011;5100;45.176;5.714;2022-09-09T09:37:41;1.75;;;1.10;;
10120;SDS011;5100;45.176;5.714;2022-09-09T09:40:14;1.23;;;1.00;;
10120;SDS011;5100;45.176;5.714;2022-09-09T09:43:02;4.03;;;1.23;;
10120;SDS011;5100;45.176;5.714;2022-09-09T09:48:13;5.15;;;1.30;;
10120;SDS011;5100;45.176;5.714;2022-09-09T09:50:47;2.17;;;1.10;;
10120;SDS011;5100;45.176;5.714;2022-09-09T09:53:19;5.12;;;1.40;;
10120;SDS011;5100;45.176;5.714;2022-09-09T09:55:53;1.60;;;1.10;;
10120;SDS011;5100;45.176;5.714;2022-09-09T09:58:22;2.90;;;1.27;;
10120;SDS011;5100;45.176;5.714;2022-09-09T10:00:51;2.30;;;1.02;;
10120;SDS011;5100;45.176;5.714;2022-09-09T10:05:54;1.65;;;1.10;;
10120;SDS011;5100;45.176;5.714;2022-09-09T10:08:22;5.85;;;1.10;;
10120;SDS011;5100;45.176;5.714;2022-09-09T10:11:05;1.50;;;1.00;;
10120;SDS011;5100;45.176;5.714;2022-09-09T10:19:50;4.10;;;1.20;;
10120;SDS011;5100;45.176;5.714;2022-09-09T10:22:37;5.15;;;1.23;;
10120;SDS011;5100;45.176;5.714;2022-09-09T10:28:02;1.05;;;0.98;;
10120;SDS011;5100;45.176;5.714;2022-09-09T10:33:21;3.05;;;1.10;;
10120;SDS011;5100;45.176;5.714;2022-09-09T10:36:17;1.77;;;0.88;;
10120;SDS011;5100;45.176;5.714;2022-09-09T10:38:45;1.67;;;0.98;;
10120;SDS011;5100;45.176;5.714;2022-09-09T10:55:35;1.58;;;1.25;;
10120;SDS011;5100;45.176;5.714;2022-09-09T10:58:09;3.37;;;1.30;;
10120;SDS011;5100;45.176;5.714;2022-09-09T11:00:43;2.10;;;0.93;;
10120;SDS011;5100;45.176;5.714;2022-09-09T11:03:19;1.42;;;1.30;;
10120;SDS011;5100;45.176;5.714;2022-09-09T11:05:56;3.75;;;1.02;;
10120;SDS011;5100;45.176;5.714;2022-09-09T11:08:24;1.65;;;0.95;;
10120;SDS011;5100;45.176;5.714;2022-09-09T11:11:04;3.85;;;0.95;;
10120;SDS011;5100;45.176;5.714;2022-09-09T11:13:53;2.08;;;1.17;;
10120;SDS011;5100;45.176;5.714;2022-09-09T11:16:28;3.85;;;1.12;;
10120;SDS011;5100;45.176;5.714;2022-09-09T11:19:02;2.25;;;1.62;;
10120;SDS011;5100;45.176;5.714;2022-09-09T11:21:46;2.15;;;1.00;;
10120;SDS011;5100;45.176;5.714;2022-09-09T11:24:20;2.45;;;1.12;;
10120;SDS011;5100;45.176;5.714;2022-09-09T11:26:52;2.47;;;1.12;;
10120;SDS011;5100;45.176;5.714;2022-09-09T11:29:32;3.12;;;1.20;;
10120;SDS011;5100;45.176;5.714;2022-09-09T11:41:01;1.48;;;1.00;;
10120;SDS011;5100;45.176;5.714;2022-09-09T11:43:31;1.52;;;1.02;;
10120;SDS011;5100;45.176;5.714;2022-09-09T11:46:05;1.42;;;1.00;;
10120;SDS011;5100;45.176;5.714;2022-09-09T11:48:37;0.90;;;0.90;;
10120;SDS011;5100;45.176;5.714;2022-09-09T11:53:56;2.87;;;1.30;;
10120;SDS011;5100;45.176;5.714;2022-09-09T11:56:34;3.40;;;1.27;;
10120;SDS011;5100;45.176;5.714;2022-09-09T11:59:19;1.20;;;1.10;;
10120;SDS011;5100;45.176;5.714;2022-09-09T12:01:54;1.52;;;1.27;;
10120;SDS011;5100;45.176;5.714;2022-09-09T12:04:48;2.10;;;1.10;;
10120;SDS011;5100;45.176;5.714;2022-09-09T12:12:35;2.87;;;0.90;;
10120;SDS011;5100;45.176;5.714;2022-09-09T12:17:41;1.45;;;1.02;;
10120;SDS011;5100;45.176;5.714;2022-09-09T12:20:15;3.65;;;0.90;;
10120;SDS011;5100;45.176;5.714;2022-09-09T12:28:19;1.98;;;1.00;;
10120;SDS011;5100;45.176;5.714;2022-09-09T12:33:43;0.95;;;0.90;;
10120;SDS011;5100;45.176;5.714;2022-09-09T12:36:17;2.78;;;1.00;;
10120;SDS011;5100;45.176;5.714;2022-09-09T12:38:46;4.60;;;1.10;;
10120;SDS011;5100;45.176;5.714;2022-09-09T12:41:21;1.27;;;0.80;;
10120;SDS011;5100;45.176;5.714;2022-09-09T12:43:48;2.25;;;1.00;;
10120;SDS011;5100;45.176;5.714;2022-09-09T12:46:32;1.80;;;0.93;;
10120;SDS011;5100;45.176;5.714;2022-09-09T12:49:03;1.75;;;0.70;;
10120;SDS011;5100;45.176;5.714;2022-09-09T12:51:31;2.17;;;0.88;;
10120;SDS011;5100;45.176;5.714;2022-09-09T12:53:58;2.12;;;1.00;;
10120;SDS011;5100;45.176;5.714;2022-09-09T12:56:29;1.12;;;0.90;;
10120;SDS011;5100;45.176;5.714;2022-09-09T12:58:57;1.20;;;0.88;;
10120;SDS011;5100;45.176;5.714;2022-09-09T13:01:25;3.10;;;1.20;;
10120;SDS011;5100;45.176;5.714;2022-09-09T13:03:57;1.92;;;1.10;;
10120;SDS011;5100;45.176;5.714;2022-09-09T13:06:25;1.33;;;0.98;;
10120;SDS011;5100;45.176;5.714;2022-09-09T13:08:53;1.30;;;0.73;;
10120;SDS011;5100;45.176;5.714;2022-09-09T13:11:21;2.33;;;0.80;;
10120;SDS011;5100;45.176;5.714;2022-09-09T13:13:52;1.95;;;1.08;;
10120;SDS011;5100;45.176;5.714;2022-09-09T13:16:26;3.70;;;1.33;;
10120;SDS011;5100;45.176;5.714;2022-09-09T13:18:57;1.80;;;1.15;;
10120;SDS011;5100;45.176;5.714;2022-09-09T13:21:36;0.90;;;0.90;;
10120;SDS011;5100;45.176;5.714;2022-09-09T13:24:04;1.55;;;0.93;;
10120;SDS011;5100;45.176;5.714;2022-09-09T13:26:33;2.12;;;1.00;;
10120;SDS011;5100;45.176;5.714;2022-09-09T13:29:18;2.17;;;0.98;;
10120;SDS011;5100;45.176;5.714;2022-09-09T13:31:45;2.28;;;0.80;;
10120;SDS011;5100;45.176;5.714;2022-09-09T13:34:12;2.65;;;0.80;;
10120;SDS011;5100;45.176;5.714;2022-09-09T13:37:19;2.47;;;1.25;;
10120;SDS011;5100;45.176;5.714;2022-09-09T13:39:59;0.98;;;0.80;;
10120;SDS011;5100;45.176;5.714;2022-09-09T13:42:29;3.78;;;1.10;;
10120;SDS011;5100;45.176;5.714;2022-09-09T13:45:00;0.85;;;0.80;;
10120;SDS011;5100;45.176;5.714;2022-09-09T13:47:31;2.70;;;1.05;;
10120;SDS011;5100;45.176;5.714;2022-09-09T13:50:15;1.40;;;1.00;;
10120;SDS011;5100;45.176;5.714;2022-09-09T13:52:49;1.23;;;0.85;;
10120;SDS011;5100;45.176;5.714;2022-09-09T13:55:25;1.12;;;0.80;;
10120;SDS011;5100;45.176;5.714;2022-09-09T13:57:53;3.60;;;1.00;;
10120;SDS011;5100;45.176;5.714;2022-09-09T14:00:21;1.73;;;1.15;;
10120;SDS011;5100;45.176;5.714;2022-09-09T14:02:50;0.93;;;0.80;;
10120;SDS011;5100;45.176;5.714;2022-09-09T14:05:19;2.20;;;0.93;;
10120;SDS011;5100;45.176;5.714;2022-09-09T14:07:47;1.15;;;0.88;;
10120;SDS011;5100;45.176;5.714;2022-09-09T14:10:14;0.95;;;0.85;;
10120;SDS011;5100;45.176;5.714;2022-09-09T14:12:41;1.10;;;0.98;;
10120;SDS011;5100;45.176;5.714;2022-09-09T14:15:07;1.27;;;0.88;;
10120;SDS011;5100;45.176;5.714;2022-09-09T14:17:35;1.27;;;0.80;;
10120;SDS011;5100;45.176;5.714;2022-09-09T14:20:04;1.02;;;0.80;;
10120;SDS011;5100;45.176;5.714;2022-09-09T14:22:32;0.60;;;0.60;;
10120;SDS011;5100;45.176;5.714;2022-09-09T14:24:59;0.90;;;0.90;;
10120;SDS011;5100;45.176;5.714;2022-09-09T14:27:25;2.15;;;1.00;;
10120;SDS011;5100;45.176;5.714;2022-09-09T14:29:52;1.40;;;0.93;;
10120;SDS011;5100;45.176;5.714;2022-09-09T14:32:18;1.30;;;0.90;;
10120;SDS011;5100;45.176;5.714;2022-09-09T14:34:44;1.27;;;0.90;;
10120;SDS011;5100;45.176;5.714;2022-09-09T14:37:10;0.90;;;0.90;;
10120;SDS011;5100;45.176;5.714;2022-09-09T14:39:37;0.93;;;0.82;;
10120;SDS011;5100;45.176;5.714;2022-09-09T14:42:03;1.67;;;0.82;;
10120;SDS011;5100;45.176;5.714;2022-09-09T14:44:29;1.25;;;0.85;;
10120;SDS011;5100;45.176;5.714;2022-09-09T14:46:56;1.37;;;0.95;;
10120;SDS011;5100;45.176;5.714;2022-09-09T14:49:21;0.70;;;0.60;;
10120;SDS011;5100;45.176;5.714;2022-09-09T14:51:47;2.15;;;0.80;;
10120;SDS011;5100;45.176;5.714;2022-09-09T14:54:13;1.10;;;0.82;;
10120;SDS011;5100;45.176;5.714;2022-09-09T14:56:40;1.90;;;0.82;;
10120;SDS011;5100;45.176;5.714;2022-09-09T14:59:05;1.08;;;0.77;;
10120;SDS011;5100;45.176;5.714;2022-09-09T15:01:32;1.58;;;0.55;;
10120;SDS011;5100;45.176;5.714;2022-09-09T15:04:00;0.80;;;0.80;;
10120;SDS011;5100;45.176;5.714;2022-09-09T15:06:28;1.00;;;0.80;;
10120;SDS011;5100;45.176;5.714;2022-09-09T15:08:56;0.77;;;0.77;;
10120;SDS011;5100;45.176;5.714;2022-09-09T15:11:26;1.45;;;1.23;;
10120;SDS011;5100;45.176;5.714;2022-09-09T15:13:56;1.75;;;0.90;;
10120;SDS011;5100;45.176;5.714;2022-09-09T15:16:24;0.93;;;0.73;;
10120;SDS011;5100;45.176;5.714;2022-09-09T15:18:53;1.10;;;0.90;;
10120;SDS011;5100;45.176;5.714;2022-09-09T15:21:21;1.58;;;0.90;;
10120;SDS011;5100;45.176;5.714;2022-09-09T15:23:48;1.00;;;0.80;;
10120;SDS011;5100;45.176;5.714;2022-09-09T15:26:15;1.27;;;0.80;;
10120;SDS011;5100;45.176;5.714;2022-09-09T15:28:43;1.15;;;0.77;;
10120;SDS011;5100;45.176;5.714;2022-09-09T15:31:23;1.10;;;0.80;;
10120;SDS011;5100;45.176;5.714;2022-09-09T15:33:55;0.75;;;0.50;;
10120;SDS011;5100;45.176;5.714;2022-09-09T15:36:29;0.90;;;0.80;;
10120;SDS011;5100;45.176;5.714;2022-09-09T15:39:00;1.17;;;0.73;;
10120;SDS011;5100;45.176;5.714;2022-09-09T15:41:27;0.90;;;0.90;;
10120;SDS011;5100;45.176;5.714;2022-09-09T15:43:54;0.80;;;0.80;;
10120;SDS011;5100;45.176;5.714;2022-09-09T15:46:32;0.73;;;0.70;;
10120;SDS011;5100;45.176;5.714;2022-09-09T15:51:46;1.92;;;1.00;;
10120;SDS011;5100;45.176;5.714;2022-09-09T15:54:16;2.10;;;0.93;;
10120;SDS011;5100;45.176;5.714;2022-09-09T15:56:44;1.33;;;0.90;;
10120;SDS011;5100;45.176;5.714;2022-09-09T15:59:12;2.08;;;0.93;;
10120;SDS011;5100;45.176;5.714;2022-09-09T16:01:38;0.98;;;0.73;;
10120;SDS011;5100;45.176;5.714;2022-09-09T16:04:05;1.40;;;0.80;;
10120;SDS011;5100;45.176;5.714;2022-09-09T16:06:31;1.33;;;0.98;;
10120;SDS011;5100;45.176;5.714;2022-09-09T16:08:58;0.95;;;0.85;;
10120;SDS011;5100;45.176;5.714;2022-09-09T16:11:27;1.00;;;0.80;;
10120;SDS011;5100;45.176;5.714;2022-09-09T16:13:58;1.75;;;1.00;;
10120;SDS011;5100;45.176;5.714;2022-09-09T16:16:26;1.60;;;0.98;;
10120;SDS011;5100;45.176;5.714;2022-09-09T16:18:55;3.58;;;0.80;;
10120;SDS011;5100;45.176;5.714;2022-09-09T16:21:26;1.85;;;1.17;;
10120;SDS011;5100;45.176;5.714;2022-09-09T16:23:57;0.80;;;0.70;;
10120;SDS011;5100;45.176;5.714;2022-09-09T16:26:25;0.75;;;0.73;;
10120;SDS011;5100;45.176;5.714;2022-09-09T16:28:52;2.30;;;0.77;;
10120;SDS011;5100;45.176;5.714;2022-09-09T16:31:21;2.10;;;0.73;;
10120;SDS011;5100;45.176;5.714;2022-09-09T16:33:49;1.87;;;1.12;;
10120;SDS011;5100;45.176;5.714;2022-09-09T16:36:19;0.80;;;0.80;;
10120;SDS011;5100;45.176;5.714;2022-09-09T16:38:51;2.08;;;1.20;;
10120;SDS011;5100;45.176;5.714;2022-09-09T16:41:22;4.75;;;1.30;;
10120;SDS011;5100;45.176;5.714;2022-09-09T16:43:54;2.95;;;1.10;;
10120;SDS011;5100;45.176;5.714;2022-09-09T16:46:21;1.15;;;0.90;;
10120;SDS011;5100;45.176;5.714;2022-09-09T16:48:49;1.27;;;0.88;;
10120;SDS011;5100;45.176;5.714;2022-09-09T16:51:17;0.80;;;0.80;;
10120;SDS011;5100;45.176;5.714;2022-09-09T16:53:45;1.17;;;1.08;;
10120;SDS011;5100;45.176;5.714;2022-09-09T16:56:13;2.00;;;1.70;;
10120;SDS011;5100;45.176;5.714;2022-09-09T16:58:42;3.65;;;2.58;;
10120;SDS011;5100;45.176;5.714;2022-09-09T17:01:10;1.25;;;1.00;;
10120;SDS011;5100;45.176;5.714;2022-09-09T17:03:39;0.80;;;0.80;;
10120;SDS011;5100;45.176;5.714;2022-09-09T17:06:13;2.47;;;1.02;;
10120;SDS011;5100;45.176;5.714;2022-09-09T17:08:40;2.33;;;1.00;;
10120;SDS011;5100;45.176;5.714;2022-09-09T17:11:13;3.10;;;1.00;;
10120;SDS011;5100;45.176;5.714;2022-09-09T17:13:42;1.10;;;1.00;;
10120;SDS011;5100;45.176;5.714;2022-09-09T17:16:08;3.83;;;1.12;;
10120;SDS011;5100;45.176;5.714;2022-09-09T17:18:35;1.37;;;0.90;;
10120;SDS011;5100;45.176;5.714;2022-09-09T17:21:05;1.87;;;1.08;;
10120;SDS011;5100;45.176;5.714;2022-09-09T17:23:35;2.03;;;1.25;;
10120;SDS011;5100;45.176;5.714;2022-09-09T17:26:06;1.17;;;0.80;;
10120;SDS011;5100;45.176;5.714;2022-09-09T17:28:35;1.65;;;1.02;;
10120;SDS011;5100;45.176;5.714;2022-09-09T17:31:02;3.42;;;1.58;;
10120;SDS011;5100;45.176;5.714;2022-09-09T17:33:30;2.87;;;1.50;;
10120;SDS011;5100;45.176;5.714;2022-09-09T17:36:07;1.65;;;1.30;;
10120;SDS011;5100;45.176;5.714;2022-09-09T17:38:41;3.72;;;1.77;;